sensor_id;sensor_type;location;lat;lon;timestamp;pressure;altitude;pressure_sealevel;temperature;humidity
79269;BME280;68714;48.586;7.772;2023-04-15T01:36:39;98883.00;;;8.71;43.05
79269;BME280;68714;48.586;7.772;2023-04-15T01:39:05;98885.56;;;8.73;43.24
79269;BME280;68714;48.586;7.772;2023-04-15T01:41:30;98884.75;;;8.71;43.37
79269;BME280;68714;48.586;7.772;2023-04-15T01:43:56;98878.72;;;8.69;43.30
79269;BME280;68714;48.586;7.772;2023-04-15T01:46:22;98884.00;;;8.69;43.15
79269;BME280;68714;48.586;7.772;2023-04-15T01:48:48;98879.78;;;8.65;43.71
79269;BME280;68714;48.586;7.772;2023-04-15T01:51:13;98880.66;;;8.65;43.83
79269;BME280;68714;48.586;7.772;2023-04-15T01:53:39;98884.13;;;8.66;44.06
79269;BME280;68714;48.586;7.772;2023-04-15T01:56:05;98891.97;;;8.67;43.91
79269;BME280;68714;48.586;7.772;2023-04-15T01:58:31;98880.44;;;8.70;44.16
79269;BME280;68714;48.586;7.772;2023-04-15T02:00:57;98884.69;;;8.72;44.14
79269;BME280;68714;48.586;7.772;2023-04-15T02:03:23;98888.19;;;8.73;44.27
79269;BME280;68714;48.586;7.772;2023-04-15T02:05:49;98889.03;;;8.73;44.08
79269;BME280;68714;48.586;7.772;2023-04-15T02:08:15;98889.78;;;8.75;44.59
79269;BME280;68714;48.586;7.772;2023-04-15T02:10:40;98889.88;;;8.74;44.54
79269;BME280;68714;48.586;7.772;2023-04-15T02:13:06;98886.41;;;8.73;45.00
79269;BME280;68714;48.586;7.772;2023-04-15T02:15:32;98883.00;;;8.71;44.83
79269;BME280;68714;48.586;7.772;2023-04-15T02:17:57;98887.47;;;8.69;44.73
79269;BME280;68714;48.586;7.772;2023-04-15T02:20:25;98889.31;;;8.67;44.91
79269;BME280;68714;48.586;7.772;2023-04-15T02:22:50;98888.56;;;8.65;45.25
79269;BME280;68714;48.586;7.772;2023-04-15T02:25:16;98885.94;;;8.65;45.16
79269;BME280;68714;48.586;7.772;2023-04-15T02:27:42;98886.00;;;8.64;45.39
79269;BME280;68714;48.586;7.772;2023-04-15T02:30:08;98882.50;;;8.63;45.44
79269;BME280;68714;48.586;7.772;2023-04-15T02:32:34;98886.09;;;8.62;45.82
79269;BME280;68714;48.586;7.772;2023-04-15T02:35:06;98884.44;;;8.60;45.75
79269;BME280;68714;48.586;7.772;2023-04-15T02:37:35;98900.22;;;8.60;45.18
79269;BME280;68714;48.586;7.772;2023-04-15T02:40:14;98894.28;;;8.56;45.84
79269;BME280;68714;48.586;7.772;2023-04-15T02:42:40;98884.59;;;8.56;45.24
79269;BME280;68714;48.586;7.772;2023-04-15T02:45:07;98890.75;;;8.55;45.54
79269;BME280;68714;48.586;7.772;2023-04-15T02:47:33;98890.91;;;8.52;45.64
79269;BME280;68714;48.586;7.772;2023-04-15T02:50:00;98888.28;;;8.52;45.75
79269;BME280;68714;48.586;7.772;2023-04-15T02:52:26;98888.69;;;8.43;45.52
79269;BME280;68714;48.586;7.772;2023-04-15T02:54:52;98882.75;;;8.39;46.00
79269;BME280;68714;48.586;7.772;2023-04-15T02:57:21;98895.00;;;8.39;45.76
79269;BME280;68714;48.586;7.772;2023-04-15T02:59:46;98899.56;;;8.35;46.01
79269;BME280;68714;48.586;7.772;2023-04-15T03:02:12;98894.31;;;8.35;46.32
79269;BME280;68714;48.586;7.772;2023-04-15T03:04:37;98896.03;;;8.36;46.11
79269;BME280;68714;48.586;7.772;2023-04-15T03:07:04;98896.88;;;8.37;46.11
79269;BME280;68714;48.586;7.772;2023-04-15T03:09:29;98898.81;;;8.33;46.48
79269;BME280;68714;48.586;7.772;2023-04-15T03:11:55;98892.75;;;8.31;46.67
79269;BME280;68714;48.586;7.772;2023-04-15T03:14:21;98900.84;;;8.27;46.17
79269;BME280;68714;48.586;7.772;2023-04-15T03:16:47;98897.44;;;8.25;46.72
79269;BME280;68714;48.586;7.772;2023-04-15T03:19:14;98900.22;;;8.21;46.74
79269;BME280;68714;48.586;7.772;2023-04-15T03:21:40;98900.22;;;8.21;46.99
79269;BME280;68714;48.586;7.772;2023-04-15T03:24:05;98904.50;;;8.24;47.13
79269;BME280;68714;48.586;7.772;2023-04-15T03:26:31;98902.00;;;8.21;46.76
79269;BME280;68714;48.586;7.772;2023-04-15T03:28:57;98908.31;;;8.17;46.70
79269;BME280;68714;48.586;7.772;2023-04-15T03:31:22;98911.16;;;8.12;47.13
79269;BME280;68714;48.586;7.772;2023-04-15T03:33:48;98898.31;;;8.06;47.24
79269;BME280;68714;48.586;7.772;2023-04-15T03:36:14;98904.63;;;8.02;47.05
79269;BME280;68714;48.586;7.772;2023-04-15T03:38:40;98897.03;;;7.96;47.24
79269;BME280;68714;48.586;7.772;2023-04-15T03:41:05;98899.00;;;7.91;47.16
79269;BME280;68714;48.586;7.772;2023-04-15T03:43:31;98891.28;;;7.88;47.33
79269;BME280;68714;48.586;7.772;2023-04-15T03:45:57;98887.84;;;7.85;47.05
79269;BME280;68714;48.586;7.772;2023-04-15T03:48:22;98890.75;;;7.79;47.08
79269;BME280;68714;48.586;7.772;2023-04-15T03:50:48;98897.84;;;7.77;47.55
79269;BME280;68714;48.586;7.772;2023-04-15T03:53:14;98897.00;;;7.77;47.52
79269;BME280;68714;48.586;7.772;2023-04-15T03:55:39;98896.88;;;7.80;47.17
79269;BME280;68714;48.586;7.772;2023-04-15T03:58:05;98897.09;;;7.75;47.38
79269;BME280;68714;48.586;7.772;2023-04-15T04:00:30;98889.97;;;7.77;47.45
79269;BME280;68714;48.586;7.772;2023-04-15T04:02:56;98888.94;;;7.81;47.59
79269;BME280;68714;48.586;7.772;2023-04-15T04:05:21;98886.16;;;7.84;47.43
79269;BME280;68714;48.586;7.772;2023-04-15T04:07:47;98890.28;;;7.90;47.10
79269;BME280;68714;48.586;7.772;2023-04-15T04:10:12;98891.19;;;7.89;47.33
79269;BME280;68714;48.586;7.772;2023-04-15T04:12:38;98900.84;;;7.89;47.34
79269;BME280;68714;48.586;7.772;2023-04-15T04:15:04;98897.38;;;7.88;47.26
79269;BME280;68714;48.586;7.772;2023-04-15T04:17:29;98905.13;;;7.91;47.91
79269;BME280;68714;48.586;7.772;2023-04-15T04:19:55;98906.81;;;7.92;48.11
79269;BME280;68714;48.586;7.772;2023-04-15T04:22:23;98908.53;;;7.93;48.13
79269;BME280;68714;48.586;7.772;2023-04-15T04:24:49;98907.53;;;7.96;48.30
79269;BME280;68714;48.586;7.772;2023-04-15T04:27:14;98895.19;;;7.98;48.25
79269;BME280;68714;48.586;7.772;2023-04-15T04:29:40;98907.38;;;7.99;48.83
79269;BME280;68714;48.586;7.772;2023-04-15T04:32:05;98918.09;;;7.94;48.64
79269;BME280;68714;48.586;7.772;2023-04-15T04:34:31;98918.25;;;7.91;48.79
79269;BME280;68714;48.586;7.772;2023-04-15T04:36:56;98917.41;;;7.91;48.75
79269;BME280;68714;48.586;7.772;2023-04-15T04:39:22;98919.38;;;7.85;48.97
79269;BME280;68714;48.586;7.772;2023-04-15T04:41:48;98918.53;;;7.85;48.90
79269;BME280;68714;48.586;7.772;2023-04-15T04:44:14;98921.22;;;7.83;48.92
79269;BME280;68714;48.586;7.772;2023-04-15T04:46:39;98910.78;;;7.82;48.92
79269;BME280;68714;48.586;7.772;2023-04-15T04:49:04;98915.34;;;7.78;49.33
79269;BME280;68714;48.586;7.772;2023-04-15T04:51:30;98906.84;;;7.72;49.74
79269;BME280;68714;48.586;7.772;2023-04-15T04:53:56;98911.47;;;7.66;49.49
79269;BME280;68714;48.586;7.772;2023-04-15T04:56:22;98920.25;;;7.65;49.66
79269;BME280;68714;48.586;7.772;2023-04-15T04:58:47;98926.31;;;7.67;50.28
79269;BME280;68714;48.586;7.772;2023-04-15T05:01:12;98934.84;;;7.73;49.96
79269;BME280;68714;48.586;7.772;2023-04-15T05:03:38;98933.50;;;7.83;50.14
79269;BME280;68714;48.586;7.772;2023-04-15T05:06:03;98929.03;;;7.85;50.11
79269;BME280;68714;48.586;7.772;2023-04-15T05:08:31;98930.88;;;7.83;50.25
79269;BME280;68714;48.586;7.772;2023-04-15T05:10:58;98926.25;;;7.88;50.42
79269;BME280;68714;48.586;7.772;2023-04-15T05:13:23;98932.88;;;7.97;50.41
79269;BME280;68714;48.586;7.772;2023-04-15T05:15:49;98927.16;;;8.08;50.47
79269;BME280;68714;48.586;7.772;2023-04-15T05:18:14;98917.94;;;8.18;50.23
79269;BME280;68714;48.586;7.772;2023-04-15T05:20:40;98923.75;;;8.25;50.28
79269;BME280;68714;48.586;7.772;2023-04-15T05:23:05;98920.75;;;8.32;50.25
79269;BME280;68714;48.586;7.772;2023-04-15T05:25:31;98923.03;;;8.40;50.13
79269;BME280;68714;48.586;7.772;2023-04-15T05:27:56;98920.13;;;8.46;49.96
79269;BME280;68714;48.586;7.772;2023-04-15T05:30:21;98927.72;;;8.52;49.88
79269;BME280;68714;48.586;7.772;2023-04-15T05:32:47;98930.06;;;8.59;49.90
79269;BME280;68714;48.586;7.772;2023-04-15T05:35:12;98929.31;;;8.56;49.98
79269;BME280;68714;48.586;7.772;2023-04-15T05:37:38;98933.66;;;8.57;50.12
79269;BME280;68714;48.586;7.772;2023-04-15T05:40:04;98930.06;;;8.59;50.22
79269;BME280;68714;48.586;7.772;2023-04-15T05:42:29;98926.44;;;8.61;50.13
79269;BME280;68714;48.586;7.772;2023-04-15T05:44:55;98923.59;;;8.66;50.33
79269;BME280;68714;48.586;7.772;2023-04-15T05:47:20;98929.31;;;8.74;50.37
79269;BME280;68714;48.586;7.772;2023-04-15T05:49:46;98922.16;;;8.78;50.51
79269;BME280;68714;48.586;7.772;2023-04-15T05:52:11;98930.81;;;8.80;50.51
79269;BME280;68714;48.586;7.772;2023-04-15T05:54:37;98931.81;;;8.77;50.23
79269;BME280;68714;48.586;7.772;2023-04-15T05:57:02;98935.53;;;8.73;50.47
79269;BME280;68714;48.586;7.772;2023-04-15T05:59:28;98933.53;;;8.78;50.50
79269;BME280;68714;48.586;7.772;2023-04-15T06:01:53;98933.38;;;8.81;50.59
79269;BME280;68714;48.586;7.772;2023-04-15T06:04:19;98935.63;;;8.89;50.52
79269;BME280;68714;48.586;7.772;2023-04-15T06:06:44;98938.81;;;8.96;50.48
79269;BME280;68714;48.586;7.772;2023-04-15T06:09:10;98934.03;;;9.04;50.58
79269;BME280;68714;48.586;7.772;2023-04-15T06:11:36;98935.41;;;9.11;50.47
79269;BME280;68714;48.586;7.772;2023-04-15T06:14:01;98937.75;;;9.17;50.27
79269;BME280;68714;48.586;7.772;2023-04-15T06:16:27;98937.38;;;9.25;50.23
79269;BME280;68714;48.586;7.772;2023-04-15T06:18:52;98941.69;;;9.26;50.16
79269;BME280;68714;48.586;7.772;2023-04-15T06:21:18;98947.53;;;9.33;50.14
79269;BME280;68714;48.586;7.772;2023-04-15T06:23:43;98949.53;;;9.27;50.14
79269;BME280;68714;48.586;7.772;2023-04-15T06:26:10;98958.19;;;9.12;50.38
79269;BME280;68714;48.586;7.772;2023-04-15T06:28:36;98953.53;;;9.00;50.63
79269;BME280;68714;48.586;7.772;2023-04-15T06:31:01;98955.69;;;8.91;51.07
79269;BME280;68714;48.586;7.772;2023-04-15T06:33:27;98953.97;;;8.90;50.79
79269;BME280;68714;48.586;7.772;2023-04-15T06:35:52;98957.81;;;8.83;51.27
79269;BME280;68714;48.586;7.772;2023-04-15T06:38:18;98954.94;;;8.70;51.18
79269;BME280;68714;48.586;7.772;2023-04-15T06:40:43;98962.56;;;8.57;51.41
79269;BME280;68714;48.586;7.772;2023-04-15T06:43:09;98960.66;;;8.40;51.55
79269;BME280;68714;48.586;7.772;2023-04-15T06:45:34;98969.66;;;8.36;51.29
79269;BME280;68714;48.586;7.772;2023-04-15T06:48:02;98976.09;;;8.29;51.63
79269;BME280;68714;48.586;7.772;2023-04-15T06:50:34;98978.81;;;8.28;51.81
79269;BME280;68714;48.586;7.772;2023-04-15T06:52:59;98967.38;;;8.29;51.38
79269;BME280;68714;48.586;7.772;2023-04-15T06:55:25;98971.25;;;8.39;51.58
79269;BME280;68714;48.586;7.772;2023-04-15T06:57:50;98963.69;;;8.52;51.62
79269;BME280;68714;48.586;7.772;2023-04-15T07:00:16;98968.53;;;8.61;51.69
79269;BME280;68714;48.586;7.772;2023-04-15T07:02:41;98965.38;;;8.72;51.28
79269;BME280;68714;48.586;7.772;2023-04-15T07:05:07;98962.25;;;8.83;51.39
79269;BME280;68714;48.586;7.772;2023-04-15T07:07:33;98959.84;;;8.96;51.31
79269;BME280;68714;48.586;7.772;2023-04-15T07:09:58;98957.50;;;9.08;51.15
79269;BME280;68714;48.586;7.772;2023-04-15T07:12:24;98956.81;;;9.22;51.13
79269;BME280;68714;48.586;7.772;2023-04-15T07:14:50;98964.00;;;9.36;51.21
79269;BME280;68714;48.586;7.772;2023-04-15T07:17:15;98959.53;;;9.56;51.03
79269;BME280;68714;48.586;7.772;2023-04-15T07:19:41;98959.41;;;9.75;50.83
79269;BME280;68714;48.586;7.772;2023-04-15T07:22:06;98950.38;;;9.96;50.68
79269;BME280;68714;48.586;7.772;2023-04-15T07:24:32;98947.88;;;10.11;50.68
79269;BME280;68714;48.586;7.772;2023-04-15T07:26:57;98949.06;;;10.21;49.94
79269;BME280;68714;48.586;7.772;2023-04-15T07:29:23;98949.50;;;10.29;49.90
79269;BME280;68714;48.586;7.772;2023-04-15T07:31:48;98944.69;;;10.38;50.11
79269;BME280;68714;48.586;7.772;2023-04-15T07:34:14;98946.81;;;10.47;50.15
79269;BME280;68714;48.586;7.772;2023-04-15T07:36:41;98947.00;;;10.60;49.99
79269;BME280;68714;48.586;7.772;2023-04-15T07:39:06;98954.06;;;10.75;49.75
79269;BME280;68714;48.586;7.772;2023-04-15T07:41:32;98961.47;;;10.84;49.73
79269;BME280;68714;48.586;7.772;2023-04-15T07:43:58;98954.69;;;10.95;49.79
79269;BME280;68714;48.586;7.772;2023-04-15T07:46:23;98960.41;;;11.03;49.32
79269;BME280;68714;48.586;7.772;2023-04-15T07:48:51;98953.63;;;11.13;49.09
79269;BME280;68714;48.586;7.772;2023-04-15T07:51:17;98960.09;;;11.23;49.25
79269;BME280;68714;48.586;7.772;2023-04-15T07:53:43;98956.84;;;11.34;49.11
79269;BME280;68714;48.586;7.772;2023-04-15T07:56:09;98959.72;;;11.46;49.05
79269;BME280;68714;48.586;7.772;2023-04-15T07:58:34;98960.84;;;11.56;48.43
79269;BME280;68714;48.586;7.772;2023-04-15T08:01:00;98963.03;;;11.64;48.05
79269;BME280;68714;48.586;7.772;2023-04-15T08:03:26;98969.47;;;11.74;47.84
79269;BME280;68714;48.586;7.772;2023-04-15T08:05:52;98958.34;;;11.83;47.73
79269;BME280;68714;48.586;7.772;2023-04-15T08:08:18;98961.34;;;11.93;47.77
79269;BME280;68714;48.586;7.772;2023-04-15T08:10:43;98970.19;;;12.06;47.28
79269;BME280;68714;48.586;7.772;2023-04-15T08:13:09;98967.06;;;12.14;47.15
79269;BME280;68714;48.586;7.772;2023-04-15T08:15:35;98963.13;;;12.21;47.18
79269;BME280;68714;48.586;7.772;2023-04-15T08:18:01;98972.94;;;12.34;46.85
79269;BME280;68714;48.586;7.772;2023-04-15T08:20:27;98977.66;;;12.43;46.40
79269;BME280;68714;48.586;7.772;2023-04-15T08:22:52;98983.22;;;12.53;46.69
79269;BME280;68714;48.586;7.772;2023-04-15T08:25:18;98981.72;;;12.48;46.70
79269;BME280;68714;48.586;7.772;2023-04-15T08:27:46;98986.03;;;12.49;46.59
79269;BME280;68714;48.586;7.772;2023-04-15T08:30:12;98986.13;;;12.48;47.11
79269;BME280;68714;48.586;7.772;2023-04-15T08:32:48;98995.03;;;12.47;47.06
79269;BME280;68714;48.586;7.772;2023-04-15T08:35:15;98989.66;;;12.48;47.18
79269;BME280;68714;48.586;7.772;2023-04-15T08:37:40;98995.69;;;12.51;47.23
79269;BME280;68714;48.586;7.772;2023-04-15T08:40:09;98998.03;;;12.55;47.01
79269;BME280;68714;48.586;7.772;2023-04-15T08:42:47;98996.97;;;12.72;47.12
79269;BME280;68714;48.586;7.772;2023-04-15T08:45:13;98990.00;;;12.98;46.88
79269;BME280;68714;48.586;7.772;2023-04-15T08:47:39;98994.19;;;13.15;46.32
79269;BME280;68714;48.586;7.772;2023-04-15T08:50:09;98996.47;;;13.22;46.16
79269;BME280;68714;48.586;7.772;2023-04-15T08:52:35;98997.75;;;13.29;46.35
79269;BME280;68714;48.586;7.772;2023-04-15T08:55:01;98999.41;;;13.44;46.28
79269;BME280;68714;48.586;7.772;2023-04-15T08:57:28;98999.66;;;13.54;46.06
79269;BME280;68714;48.586;7.772;2023-04-15T08:59:57;98997.13;;;13.65;45.54
79269;BME280;68714;48.586;7.772;2023-04-15T09:02:23;99001.69;;;13.76;45.65
79269;BME280;68714;48.586;7.772;2023-04-15T09:04:49;98994.50;;;13.91;45.74
79269;BME280;68714;48.586;7.772;2023-04-15T09:07:15;99004.78;;;14.08;45.72
79269;BME280;68714;48.586;7.772;2023-04-15T09:09:41;99000.25;;;14.11;45.26
79269;BME280;68714;48.586;7.772;2023-04-15T09:12:07;99009.47;;;14.05;44.87
79269;BME280;68714;48.586;7.772;2023-04-15T09:14:33;99006.72;;;13.94;45.20
79269;BME280;68714;48.586;7.772;2023-04-15T09:17:00;99011.16;;;13.93;45.25
79269;BME280;68714;48.586;7.772;2023-04-15T09:19:27;99019.44;;;14.14;45.26
79269;BME280;68714;48.586;7.772;2023-04-15T09:21:54;99011.59;;;14.38;45.05
79269;BME280;68714;48.586;7.772;2023-04-15T09:24:24;99012.00;;;14.58;45.10
79269;BME280;68714;48.586;7.772;2023-04-15T09:26:52;99018.44;;;14.79;44.99
79269;BME280;68714;48.586;7.772;2023-04-15T09:29:20;99021.66;;;14.72;42.82
79269;BME280;68714;48.586;7.772;2023-04-15T09:31:48;99021.00;;;14.68;44.52
79269;BME280;68714;48.586;7.772;2023-04-15T09:34:14;99023.66;;;14.68;44.58
79269;BME280;68714;48.586;7.772;2023-04-15T09:39:10;99015.69;;;14.55;44.00
79269;BME280;68714;48.586;7.772;2023-04-15T09:41:36;99020.06;;;14.43;43.85
79269;BME280;68714;48.586;7.772;2023-04-15T09:44:03;99020.72;;;14.34;43.69
79269;BME280;68714;48.586;7.772;2023-04-15T09:46:42;99031.75;;;14.28;43.81
79269;BME280;68714;48.586;7.772;2023-04-15T09:49:11;99025.91;;;14.36;43.94
79269;BME280;68714;48.586;7.772;2023-04-15T09:51:37;99022.31;;;14.37;43.56
79269;BME280;68714;48.586;7.772;2023-04-15T09:54:04;99025.91;;;14.36;43.46
79269;BME280;68714;48.586;7.772;2023-04-15T09:56:38;99024.09;;;14.36;43.01
79269;BME280;68714;48.586;7.772;2023-04-15T09:59:08;99028.47;;;14.37;43.06
79269;BME280;68714;48.586;7.772;2023-04-15T10:01:34;99033.88;;;14.36;42.81
79269;BME280;68714;48.586;7.772;2023-04-15T10:04:10;99027.41;;;14.40;41.82
79269;BME280;68714;48.586;7.772;2023-04-15T10:06:36;99023.66;;;14.42;42.43
79269;BME280;68714;48.586;7.772;2023-04-15T10:09:01;99026.44;;;14.54;42.29
79269;BME280;68714;48.586;7.772;2023-04-15T10:11:28;99021.56;;;14.60;42.34
79269;BME280;68714;48.586;7.772;2023-04-15T10:13:56;99028.88;;;14.70;42.40
79269;BME280;68714;48.586;7.772;2023-04-15T10:16:23;99022.13;;;14.90;42.29
79269;BME280;68714;48.586;7.772;2023-04-15T10:18:57;99024.78;;;15.27;42.35
79269;BME280;68714;48.586;7.772;2023-04-15T10:21:30;99020.56;;;15.71;41.89
79269;BME280;68714;48.586;7.772;2023-04-15T10:24:02;99026.00;;;15.94;40.56
79269;BME280;68714;48.586;7.772;2023-04-15T10:26:28;99032.53;;;16.01;40.44
79269;BME280;68714;48.586;7.772;2023-04-15T10:28:54;99027.34;;;16.11;40.17
79269;BME280;68714;48.586;7.772;2023-04-15T10:31:20;99025.69;;;16.10;40.07
79269;BME280;68714;48.586;7.772;2023-04-15T10:33:48;99032.94;;;16.19;40.16
79269;BME280;68714;48.586;7.772;2023-04-15T10:36:22;99030.41;;;16.29;40.04
79269;BME280;68714;48.586;7.772;2023-04-15T10:38:54;99036.00;;;16.48;40.61
79269;BME280;68714;48.586;7.772;2023-04-15T10:42:02;99034.16;;;16.71;40.26
79269;BME280;68714;48.586;7.772;2023-04-15T10:44:42;99032.72;;;16.79;39.53
79269;BME280;68714;48.586;7.772;2023-04-15T10:47:14;99035.50;;;16.88;39.25
79269;BME280;68714;48.586;7.772;2023-04-15T10:49:57;99041.06;;;16.97;36.57
79269;BME280;68714;48.586;7.772;2023-04-15T10:52:29;99036.22;;;16.90;37.59
79269;BME280;68714;48.586;7.772;2023-04-15T10:55:15;99038.28;;;16.75;36.38
79269;BME280;68714;48.586;7.772;2023-04-15T10:57:44;99038.03;;;16.67;38.25
79269;BME280;68714;48.586;7.772;2023-04-15T11:00:16;99037.19;;;16.67;37.04
79269;BME280;68714;48.586;7.772;2023-04-15T11:03:05;99041.06;;;16.74;37.75
79269;BME280;68714;48.586;7.772;2023-04-15T11:08:06;99041.28;;;17.48;37.76
79269;BME280;68714;48.586;7.772;2023-04-15T11:13:01;99048.63;;;17.68;36.98
79269;BME280;68714;48.586;7.772;2023-04-15T11:15:41;99044.78;;;17.81;34.23
79269;BME280;68714;48.586;7.772;2023-04-15T11:18:26;99056.56;;;17.90;34.58
79269;BME280;68714;48.586;7.772;2023-04-15T11:20:54;99069.25;;;17.87;35.50
79269;BME280;68714;48.586;7.772;2023-04-15T11:23:28;99063.09;;;17.86;35.92
79269;BME280;68714;48.586;7.772;2023-04-15T11:25:55;99071.44;;;17.93;35.60
79269;BME280;68714;48.586;7.772;2023-04-15T11:28:27;99066.69;;;17.64;32.38
79269;BME280;68714;48.586;7.772;2023-04-15T11:30:53;99068.09;;;17.47;33.23
79269;BME280;68714;48.586;7.772;2023-04-15T11:33:20;99066.88;;;17.51;36.10
79269;BME280;68714;48.586;7.772;2023-04-15T11:35:46;99071.63;;;17.36;35.09
79269;BME280;68714;48.586;7.772;2023-04-15T11:38:13;99066.97;;;17.17;34.57
79269;BME280;68714;48.586;7.772;2023-04-15T11:40:40;99068.91;;;17.15;34.67
79269;BME280;68714;48.586;7.772;2023-04-15T11:43:14;99062.34;;;17.31;35.15
79269;BME280;68714;48.586;7.772;2023-04-15T11:46:00;99060.84;;;17.70;33.48
79269;BME280;68714;48.586;7.772;2023-04-15T11:48:32;99068.78;;;17.93;33.25
79269;BME280;68714;48.586;7.772;2023-04-15T11:53:46;99076.25;;;17.99;30.66
79269;BME280;68714;48.586;7.772;2023-04-15T11:56:19;99076.00;;;18.02;32.42
79269;BME280;68714;48.586;7.772;2023-04-15T11:58:46;99074.53;;;18.09;32.78
79269;BME280;68714;48.586;7.772;2023-04-15T12:01:12;99074.66;;;18.08;31.97
79269;BME280;68714;48.586;7.772;2023-04-15T12:03:45;99082.03;;;17.83;32.31
79269;BME280;68714;48.586;7.772;2023-04-15T12:11:47;99096.53;;;17.14;33.18
79269;BME280;68714;48.586;7.772;2023-04-15T12:14:29;99099.09;;;16.93;32.54
79269;BME280;68714;48.586;7.772;2023-04-15T12:17:03;99101.41;;;16.86;32.63
79269;BME280;68714;48.586;7.772;2023-04-15T12:19:37;99099.94;;;17.05;33.42
79269;BME280;68714;48.586;7.772;2023-04-15T12:22:13;99095.63;;;17.36;31.98
79269;BME280;68714;48.586;7.772;2023-04-15T12:24:40;99099.47;;;17.55;33.02
79269;BME280;68714;48.586;7.772;2023-04-15T12:27:11;99104.94;;;17.97;32.83
79269;BME280;68714;48.586;7.772;2023-04-15T12:29:40;99109.44;;;18.39;32.88
79269;BME280;68714;48.586;7.772;2023-04-15T12:32:16;99106.50;;;18.72;32.52
79269;BME280;68714;48.586;7.772;2023-04-15T12:34:49;99114.94;;;18.99;32.11
79269;BME280;68714;48.586;7.772;2023-04-15T12:37:15;99109.88;;;18.96;30.80
79269;BME280;68714;48.586;7.772;2023-04-15T12:39:43;99120.06;;;18.81;31.19
79269;BME280;68714;48.586;7.772;2023-04-15T12:42:10;99124.91;;;18.87;30.99
79269;BME280;68714;48.586;7.772;2023-04-15T12:44:37;99133.44;;;18.81;29.82
79269;BME280;68714;48.586;7.772;2023-04-15T12:47:03;99128.22;;;18.48;30.11
79269;BME280;68714;48.586;7.772;2023-04-15T12:49:30;99136.72;;;18.42;29.85
79269;BME280;68714;48.586;7.772;2023-04-15T12:51:59;99136.00;;;18.40;30.07
79269;BME280;68714;48.586;7.772;2023-04-15T12:54:26;99143.50;;;18.25;29.69
79269;BME280;68714;48.586;7.772;2023-04-15T12:56:52;99143.09;;;18.09;29.86
79269;BME280;68714;48.586;7.772;2023-04-15T12:59:18;99149.28;;;18.09;30.11
79269;BME280;68714;48.586;7.772;2023-04-15T13:01:45;99143.63;;;18.24;29.95
79269;BME280;68714;48.586;7.772;2023-04-15T13:04:11;99150.72;;;18.34;29.03
79269;BME280;68714;48.586;7.772;2023-04-15T13:06:37;99153.25;;;18.36;29.36
79269;BME280;68714;48.586;7.772;2023-04-15T13:09:03;99155.53;;;18.41;29.24
79269;BME280;68714;48.586;7.772;2023-04-15T13:11:30;99153.66;;;18.31;29.05
79269;BME280;68714;48.586;7.772;2023-04-15T13:13:59;99164.34;;;18.31;29.72
79269;BME280;68714;48.586;7.772;2023-04-15T13:16:24;99161.53;;;18.54;29.82
79269;BME280;68714;48.586;7.772;2023-04-15T13:18:50;99167.91;;;18.84;30.08
79269;BME280;68714;48.586;7.772;2023-04-15T13:21:16;99165.59;;;18.91;29.21
79269;BME280;68714;48.586;7.772;2023-04-15T13:23:42;99166.72;;;18.67;28.81
79269;BME280;68714;48.586;7.772;2023-04-15T13:26:09;99177.13;;;18.49;29.33
79269;BME280;68714;48.586;7.772;2023-04-15T13:28:35;99174.25;;;18.41;28.73
79269;BME280;68714;48.586;7.772;2023-04-15T13:31:00;99179.97;;;18.36;29.19
79269;BME280;68714;48.586;7.772;2023-04-15T13:33:27;99181.59;;;18.69;29.41
79269;BME280;68714;48.586;7.772;2023-04-15T13:35:53;99188.34;;;18.85;28.86
79269;BME280;68714;48.586;7.772;2023-04-15T13:38:18;99190.28;;;18.83;29.08
79269;BME280;68714;48.586;7.772;2023-04-15T13:40:43;99186.78;;;18.82;29.26
79269;BME280;68714;48.586;7.772;2023-04-15T13:43:09;99191.00;;;18.85;29.61
79269;BME280;68714;48.586;7.772;2023-04-15T13:45:36;99191.09;;;18.95;29.31
79269;BME280;68714;48.586;7.772;2023-04-15T13:48:03;99190.84;;;19.07;29.46
79269;BME280;68714;48.586;7.772;2023-04-15T13:50:28;99199.53;;;19.31;29.39
79269;BME280;68714;48.586;7.772;2023-04-15T13:52:53;99202.44;;;19.18;28.99
79269;BME280;68714;48.586;7.772;2023-04-15T13:55:19;99205.31;;;19.05;29.43
79269;BME280;68714;48.586;7.772;2023-04-15T13:57:44;99207.16;;;19.04;29.13
79269;BME280;68714;48.586;7.772;2023-04-15T14:00:10;99208.16;;;18.82;29.35
79269;BME280;68714;48.586;7.772;2023-04-15T14:02:36;99212.78;;;18.59;29.51
79269;BME280;68714;48.586;7.772;2023-04-15T14:05:02;99216.53;;;18.35;29.80
79269;BME280;68714;48.586;7.772;2023-04-15T14:07:28;99218.06;;;18.17;30.08
79269;BME280;68714;48.586;7.772;2023-04-15T14:09:55;99218.38;;;18.03;30.30
79269;BME280;68714;48.586;7.772;2023-04-15T14:12:20;99213.41;;;17.98;30.41
79269;BME280;68714;48.586;7.772;2023-04-15T14:14:46;99218.00;;;17.96;30.42
79269;BME280;68714;48.586;7.772;2023-04-15T14:17:11;99229.56;;;17.96;30.50
79269;BME280;68714;48.586;7.772;2023-04-15T14:19:37;99216.81;;;18.00;30.56
79269;BME280;68714;48.586;7.772;2023-04-15T14:22:02;99224.63;;;18.13;30.52
79269;BME280;68714;48.586;7.772;2023-04-15T14:24:27;99225.25;;;18.16;30.69
79269;BME280;68714;48.586;7.772;2023-04-15T14:26:53;99216.84;;;18.21;30.63
79269;BME280;68714;48.586;7.772;2023-04-15T14:29:19;99218.94;;;18.39;30.84
79269;BME280;68714;48.586;7.772;2023-04-15T14:31:45;99224.06;;;18.63;30.47
79269;BME280;68714;48.586;7.772;2023-04-15T14:34:10;99228.56;;;18.62;30.63
79269;BME280;68714;48.586;7.772;2023-04-15T14:36:37;99228.59;;;18.51;30.65
79269;BME280;68714;48.586;7.772;2023-04-15T14:39:09;99238.44;;;18.50;30.78
79269;BME280;68714;48.586;7.772;2023-04-15T14:41:35;99236.50;;;18.52;30.79
79269;BME280;68714;48.586;7.772;2023-04-15T14:44:01;99235.91;;;18.49;30.54
79269;BME280;68714;48.586;7.772;2023-04-15T14:46:26;99246.03;;;18.34;30.64
79269;BME280;68714;48.586;7.772;2023-04-15T14:48:52;99249.28;;;18.16;30.86
79269;BME280;68714;48.586;7.772;2023-04-15T14:51:17;99253.66;;;18.06;30.93
79269;BME280;68714;48.586;7.772;2023-04-15T14:53:44;99256.22;;;17.85;30.92
79269;BME280;68714;48.586;7.772;2023-04-15T14:56:10;99259.31;;;17.69;30.97